This is the latest recevied weather packets stored in our database for station/object SQ2CDE-4. If no packets are shown the sender has not sent any weather packets the latest 10 day(s).
| Time | Temp. | Humidity | Pressure | Rain* | Wind** | Luminosity | Snow |
|---|---|---|---|---|---|---|---|
| 1777838071 | 15° C | 55% | 1011 hPa | - | - | - | - |
| 1777836865 | 16.11° C | 51% | 1011 hPa | - | - | - | - |
| 1777834452 | 17.22° C | 48% | 1010 hPa | - | - | - | - |
| 1777833247 | 18.89° C | 40% | 1010 hPa | - | - | - | - |
| 1777831435 | 20° C | 37% | 1010 hPa | - | - | - | - |
| 1777826610 | 21.11° C | 38% | 1010 hPa | - | - | - | - |
| 1777826006 | 22.78° C | 31% | 1009 hPa | - | - | - | - |
| 1777825402 | 22.78° C | 31% | 1009 hPa | - | - | - | - |
| 1777819324 | 27.78° C | 17% | 1010 hPa | - | - | - | - |
| 1777816910 | 27.78° C | 20% | 1011 hPa | - | - | - | - |
| 1777815101 | 27.78° C | 20% | 1011 hPa | - | - | - | - |
| 1777814488 | 27.78° C | 20% | 1011 hPa | - | - | - | - |
| 1777813884 | 27.78° C | 20% | 1011 hPa | - | - | - | - |
| 1777812069 | 27.78° C | 17% | 1011 hPa | - | - | - | - |
| 1777811466 | 27.78° C | 17% | 1012 hPa | - | - | - | - |
| 1777807774 | 27.22° C | 20% | 1012 hPa | - | - | - | - |
| 1777804152 | 26.11° C | 21% | 1012 hPa | - | - | - | - |
| 1777802943 | 26.11° C | 21% | 1012 hPa | - | - | - | - |
| 1777802338 | 26.11° C | 21% | 1013 hPa | - | - | - | - |
| 1777801733 | 26.11° C | 21% | 1013 hPa | - | - | - | - |
| 1777801128 | 26.11° C | 21% | 1013 hPa | - | - | - | - |
| 1777800524 | 25° C | 26% | 1013 hPa | - | - | - | - |
| 1777799919 | 25° C | 26% | 1013 hPa | - | - | - | - |
| 1777799314 | 25° C | 26% | 1013 hPa | - | - | - | - |
| 1777798709 | 23.89° C | 27% | 1013 hPa | - | - | - | - |
* Rain since midnight (hover to see other rain measurements)
** Current wind speed in m/s (hover to see current wind gust speed)